This is the latest recevied weather packets stored in our database for station/object JF2ZGN-13. If no packets are shown the sender has not sent any weather packets the latest 10 day(s).
| Time | Temp. | Humidity | Pressure | Rain* | Wind** | Luminosity | Snow |
|---|---|---|---|---|---|---|---|
| 1787700430 | 23.33° C | 66% | 909.7 hPa | 0 mm | - | - | - |
| 1787699829 | 23.33° C | 67% | 909.8 hPa | 0 mm | - | - | - |
| 1787699228 | 23.33° C | 66% | 909.8 hPa | 0 mm | - | - | - |
| 1787698628 | 22.78° C | 69% | 909.7 hPa | 0 mm | - | - | - |
| 1787698027 | 22.22° C | 70% | 909.2 hPa | 0 mm | - | - | - |
| 1787697428 | 22.22° C | 71% | 909.6 hPa | 0 mm | - | - | - |
| 1787696827 | 22.78° C | 68% | 909.6 hPa | 0 mm | - | - | - |
| 1787696226 | 22.78° C | 60% | 909.1 hPa | 0 mm | - | - | - |
| 1787695626 | 22.22° C | 60% | 909.2 hPa | 0 mm | - | - | - |
| 1787694424 | 21.67° C | 72% | 909.1 hPa | 0 mm | - | - | - |
| 1787693824 | 21.11° C | 82% | 908.9 hPa | 0 mm | - | - | - |
| 1787693224 | 21.11° C | 79% | 908.9 hPa | 0 mm | - | - | - |
| 1787692624 | 21.67° C | 72% | 908.6 hPa | 0 mm | - | - | - |
| 1787692024 | 21.11° C | 75% | 908.7 hPa | 0 mm | - | - | - |
| 1787691422 | 21.11° C | 79% | 908.8 hPa | 0 mm | - | - | - |
| 1787690221 | 20.56° C | 86% | 908.7 hPa | 0 mm | - | - | - |
| 1787689621 | 20.56° C | 88% | 908.9 hPa | 0 mm | - | - | - |
| 1787689021 | 20.56° C | 86% | 908.9 hPa | 0 mm | - | - | - |
| 1787688421 | 20.56° C | 82% | 908.9 hPa | 0 mm | - | - | - |
| 1787687820 | 21.11° C | 79% | 908.9 hPa | 0 mm | - | - | - |
| 1787687219 | 21.11° C | 78% | 909 hPa | 0 mm | - | - | - |
| 1787686618 | 21.67° C | 76% | 909.2 hPa | 0 mm | - | - | - |
| 1787686018 | 21.67° C | 73% | 909.2 hPa | 0 mm | - | - | - |
| 1787685420 | 21.67° C | 75% | 909.2 hPa | 0 mm | - | - | - |
| 1787684817 | 21.67° C | 75% | 909.1 hPa | 0 mm | - | - | - |
* Rain since midnight (hover to see other rain measurements)
** Current wind speed in m/s (hover to see current wind gust speed)